sensor_id;sensor_type;location;lat;lon;timestamp;P1;durP1;ratioP1;P2;durP2;ratioP2
22007;SDS011;11168;56.976;24.168;2023-02-25T00:01:10;43.35;;;18.60;;
22007;SDS011;11168;56.976;24.168;2023-02-25T00:03:38;49.15;;;18.13;;
22007;SDS011;11168;56.976;24.168;2023-02-25T00:06:07;48.83;;;19.67;;
22007;SDS011;11168;56.976;24.168;2023-02-25T00:08:35;53.55;;;22.63;;
22007;SDS011;11168;56.976;24.168;2023-02-25T00:11:03;40.53;;;16.20;;
22007;SDS011;11168;56.976;24.168;2023-02-25T00:13:32;41.47;;;16.98;;
22007;SDS011;11168;56.976;24.168;2023-02-25T00:16:01;39.30;;;15.85;;
22007;SDS011;11168;56.976;24.168;2023-02-25T00:18:29;37.40;;;15.05;;
22007;SDS011;11168;56.976;24.168;2023-02-25T00:20:57;35.20;;;14.98;;
22007;SDS011;11168;56.976;24.168;2023-02-25T00:23:24;33.50;;;14.05;;
22007;SDS011;11168;56.976;24.168;2023-02-25T00:25:58;33.50;;;13.82;;
22007;SDS011;11168;56.976;24.168;2023-02-25T00:28:28;34.45;;;14.32;;
22007;SDS011;11168;56.976;24.168;2023-02-25T00:30:55;33.88;;;14.73;;
22007;SDS011;11168;56.976;24.168;2023-02-25T00:33:22;31.25;;;14.70;;
22007;SDS011;11168;56.976;24.168;2023-02-25T00:35:51;31.70;;;15.18;;
22007;SDS011;11168;56.976;24.168;2023-02-25T00:38:18;32.70;;;15.23;;
22007;SDS011;11168;56.976;24.168;2023-02-25T00:40:45;34.60;;;14.45;;
22007;SDS011;11168;56.976;24.168;2023-02-25T00:43:12;32.63;;;13.60;;
22007;SDS011;11168;56.976;24.168;2023-02-25T00:45:39;37.88;;;13.25;;
22007;SDS011;11168;56.976;24.168;2023-02-25T00:48:06;32.85;;;14.00;;
22007;SDS011;11168;56.976;24.168;2023-02-25T00:50:34;33.58;;;13.50;;
22007;SDS011;11168;56.976;24.168;2023-02-25T00:53:01;35.70;;;14.77;;
22007;SDS011;11168;56.976;24.168;2023-02-25T00:55:28;36.63;;;15.50;;
22007;SDS011;11168;56.976;24.168;2023-02-25T00:57:59;32.83;;;14.00;;
22007;SDS011;11168;56.976;24.168;2023-02-25T01:00:27;33.63;;;13.70;;
22007;SDS011;11168;56.976;24.168;2023-02-25T01:02:56;30.88;;;13.85;;
22007;SDS011;11168;56.976;24.168;2023-02-25T01:05:23;37.28;;;15.38;;
22007;SDS011;11168;56.976;24.168;2023-02-25T01:07:50;35.00;;;14.27;;
22007;SDS011;11168;56.976;24.168;2023-02-25T01:10:17;39.20;;;15.60;;
22007;SDS011;11168;56.976;24.168;2023-02-25T01:12:44;38.45;;;17.65;;
22007;SDS011;11168;56.976;24.168;2023-02-25T01:15:12;37.90;;;17.38;;
22007;SDS011;11168;56.976;24.168;2023-02-25T01:17:39;38.38;;;17.10;;
22007;SDS011;11168;56.976;24.168;2023-02-25T01:20:06;37.45;;;17.13;;
22007;SDS011;11168;56.976;24.168;2023-02-25T01:22:38;37.75;;;15.77;;
22007;SDS011;11168;56.976;24.168;2023-02-25T01:25:11;42.17;;;17.90;;
22007;SDS011;11168;56.976;24.168;2023-02-25T01:27:41;42.03;;;17.23;;
22007;SDS011;11168;56.976;24.168;2023-02-25T01:30:08;43.80;;;17.52;;
22007;SDS011;11168;56.976;24.168;2023-02-25T01:32:36;45.60;;;17.70;;
22007;SDS011;11168;56.976;24.168;2023-02-25T01:35:04;43.83;;;18.95;;
22007;SDS011;11168;56.976;24.168;2023-02-25T01:37:31;48.13;;;20.67;;
22007;SDS011;11168;56.976;24.168;2023-02-25T01:39:58;51.97;;;21.42;;
22007;SDS011;11168;56.976;24.168;2023-02-25T01:42:25;47.97;;;18.35;;
22007;SDS011;11168;56.976;24.168;2023-02-25T01:47:44;43.85;;;17.48;;
22007;SDS011;11168;56.976;24.168;2023-02-25T01:50:16;48.30;;;17.90;;
22007;SDS011;11168;56.976;24.168;2023-02-25T01:52:45;43.95;;;17.95;;
22007;SDS011;11168;56.976;24.168;2023-02-25T01:55:12;45.13;;;16.77;;
22007;SDS011;11168;56.976;24.168;2023-02-25T01:57:40;36.88;;;16.25;;
22007;SDS011;11168;56.976;24.168;2023-02-25T02:00:07;41.95;;;16.98;;
22007;SDS011;11168;56.976;24.168;2023-02-25T02:02:42;41.17;;;16.10;;
22007;SDS011;11168;56.976;24.168;2023-02-25T02:05:12;44.75;;;16.02;;
22007;SDS011;11168;56.976;24.168;2023-02-25T02:07:40;41.30;;;15.90;;
22007;SDS011;11168;56.976;24.168;2023-02-25T02:10:09;43.15;;;16.55;;
22007;SDS011;11168;56.976;24.168;2023-02-25T02:12:37;36.67;;;15.55;;
22007;SDS011;11168;56.976;24.168;2023-02-25T02:15:08;39.03;;;15.38;;
22007;SDS011;11168;56.976;24.168;2023-02-25T02:17:40;36.55;;;15.18;;
22007;SDS011;11168;56.976;24.168;2023-02-25T02:20:18;37.13;;;15.35;;
22007;SDS011;11168;56.976;24.168;2023-02-25T02:28:37;36.65;;;13.73;;
22007;SDS011;11168;56.976;24.168;2023-02-25T02:42:20;37.03;;;14.57;;
22007;SDS011;11168;56.976;24.168;2023-02-25T02:50:13;32.28;;;13.68;;
22007;SDS011;11168;56.976;24.168;2023-02-25T02:53:03;34.38;;;15.15;;
22007;SDS011;11168;56.976;24.168;2023-02-25T02:55:57;32.58;;;14.35;;
22007;SDS011;11168;56.976;24.168;2023-02-25T02:58:29;37.83;;;14.82;;
22007;SDS011;11168;56.976;24.168;2023-02-25T03:01:16;32.53;;;13.95;;
22007;SDS011;11168;56.976;24.168;2023-02-25T03:03:47;35.60;;;14.80;;
22007;SDS011;11168;56.976;24.168;2023-02-25T03:06:27;37.55;;;15.57;;
22007;SDS011;11168;56.976;24.168;2023-02-25T03:11:43;36.67;;;15.77;;
22007;SDS011;11168;56.976;24.168;2023-02-25T03:14:11;36.50;;;15.00;;
22007;SDS011;11168;56.976;24.168;2023-02-25T03:16:41;36.13;;;15.75;;
22007;SDS011;11168;56.976;24.168;2023-02-25T03:19:17;35.00;;;15.18;;
22007;SDS011;11168;56.976;24.168;2023-02-25T03:21:57;35.88;;;14.55;;
22007;SDS011;11168;56.976;24.168;2023-02-25T03:24:34;33.08;;;14.85;;
22007;SDS011;11168;56.976;24.168;2023-02-25T03:27:24;32.88;;;15.32;;
22007;SDS011;11168;56.976;24.168;2023-02-25T03:29:55;37.78;;;16.05;;
22007;SDS011;11168;56.976;24.168;2023-02-25T03:32:30;33.75;;;16.48;;
22007;SDS011;11168;56.976;24.168;2023-02-25T03:35:02;41.38;;;18.55;;
22007;SDS011;11168;56.976;24.168;2023-02-25T03:37:32;39.25;;;18.20;;
22007;SDS011;11168;56.976;24.168;2023-02-25T03:40:02;44.45;;;17.55;;
22007;SDS011;11168;56.976;24.168;2023-02-25T03:42:41;37.67;;;16.02;;
22007;SDS011;11168;56.976;24.168;2023-02-25T03:45:13;39.25;;;15.18;;
22007;SDS011;11168;56.976;24.168;2023-02-25T03:47:41;31.52;;;13.77;;
22007;SDS011;11168;56.976;24.168;2023-02-25T03:50:30;32.55;;;13.60;;
22007;SDS011;11168;56.976;24.168;2023-02-25T03:52:59;34.38;;;13.98;;
22007;SDS011;11168;56.976;24.168;2023-02-25T03:55:26;34.60;;;14.57;;
22007;SDS011;11168;56.976;24.168;2023-02-25T03:57:54;40.53;;;19.00;;
22007;SDS011;11168;56.976;24.168;2023-02-25T04:00:26;31.33;;;13.73;;
22007;SDS011;11168;56.976;24.168;2023-02-25T04:02:56;35.03;;;15.75;;
22007;SDS011;11168;56.976;24.168;2023-02-25T04:05:24;34.10;;;14.68;;
22007;SDS011;11168;56.976;24.168;2023-02-25T04:10:22;31.33;;;13.15;;
22007;SDS011;11168;56.976;24.168;2023-02-25T14:16:19;16.20;;;8.77;;
22007;SDS011;11168;56.976;24.168;2023-02-25T14:24:26;25.95;;;12.52;;
22007;SDS011;11168;56.976;24.168;2023-02-25T14:38:12;17.90;;;9.70;;
22007;SDS011;11168;56.976;24.168;2023-02-25T14:43:45;21.65;;;9.98;;
22007;SDS011;11168;56.976;24.168;2023-02-25T14:49:04;22.58;;;10.95;;
22007;SDS011;11168;56.976;24.168;2023-02-25T15:22:01;17.33;;;8.43;;
22007;SDS011;11168;56.976;24.168;2023-02-25T15:24:46;20.58;;;10.15;;
22007;SDS011;11168;56.976;24.168;2023-02-25T15:30:08;11.43;;;6.57;;
22007;SDS011;11168;56.976;24.168;2023-02-25T15:35:54;14.65;;;7.38;;
22007;SDS011;11168;56.976;24.168;2023-02-25T15:38:42;13.10;;;6.68;;
22007;SDS011;11168;56.976;24.168;2023-02-25T15:41:56;13.27;;;7.53;;
22007;SDS011;11168;56.976;24.168;2023-02-25T15:52:12;14.48;;;6.40;;
22007;SDS011;11168;56.976;24.168;2023-02-25T15:55:18;10.75;;;6.22;;
22007;SDS011;11168;56.976;24.168;2023-02-25T15:57:57;14.50;;;7.07;;
22007;SDS011;11168;56.976;24.168;2023-02-25T16:14:26;13.98;;;6.20;;
22007;SDS011;11168;56.976;24.168;2023-02-25T16:16:59;10.25;;;5.65;;
22007;SDS011;11168;56.976;24.168;2023-02-25T16:19:32;13.52;;;6.82;;
22007;SDS011;11168;56.976;24.168;2023-02-25T16:22:06;11.75;;;6.20;;
22007;SDS011;11168;56.976;24.168;2023-02-25T16:24:51;12.13;;;6.43;;
22007;SDS011;11168;56.976;24.168;2023-02-25T16:35:31;10.32;;;5.30;;
22007;SDS011;11168;56.976;24.168;2023-02-25T16:41:03;11.40;;;6.43;;
22007;SDS011;11168;56.976;24.168;2023-02-25T16:43:32;15.25;;;7.20;;
22007;SDS011;11168;56.976;24.168;2023-02-25T16:46:06;12.57;;;6.25;;
22007;SDS011;11168;56.976;24.168;2023-02-25T16:48:47;12.57;;;7.10;;
22007;SDS011;11168;56.976;24.168;2023-02-25T16:51:33;12.13;;;6.53;;
22007;SDS011;11168;56.976;24.168;2023-02-25T16:54:16;13.38;;;7.20;;
22007;SDS011;11168;56.976;24.168;2023-02-25T16:56:46;15.50;;;7.72;;
22007;SDS011;11168;56.976;24.168;2023-02-25T16:59:17;12.93;;;6.57;;
22007;SDS011;11168;56.976;24.168;2023-02-25T17:07:12;18.20;;;8.18;;
22007;SDS011;11168;56.976;24.168;2023-02-25T17:09:54;15.07;;;6.82;;
22007;SDS011;11168;56.976;24.168;2023-02-25T17:15:20;17.38;;;8.38;;
22007;SDS011;11168;56.976;24.168;2023-02-25T17:17:53;17.85;;;8.15;;
22007;SDS011;11168;56.976;24.168;2023-02-25T17:20:27;13.65;;;6.82;;
22007;SDS011;11168;56.976;24.168;2023-02-25T17:22:55;18.75;;;8.60;;
22007;SDS011;11168;56.976;24.168;2023-02-25T17:25:26;18.13;;;8.85;;
22007;SDS011;11168;56.976;24.168;2023-02-25T17:27:57;17.17;;;8.25;;
22007;SDS011;11168;56.976;24.168;2023-02-25T17:30:41;15.80;;;7.60;;
22007;SDS011;11168;56.976;24.168;2023-02-25T17:33:22;16.88;;;7.57;;
22007;SDS011;11168;56.976;24.168;2023-02-25T17:36:32;10.35;;;4.70;;
22007;SDS011;11168;56.976;24.168;2023-02-25T17:39:49;17.80;;;8.68;;
22007;SDS011;11168;56.976;24.168;2023-02-25T17:43:18;19.55;;;7.95;;
22007;SDS011;11168;56.976;24.168;2023-02-25T17:46:31;19.00;;;7.63;;
22007;SDS011;11168;56.976;24.168;2023-02-25T17:49:04;17.63;;;7.85;;
22007;SDS011;11168;56.976;24.168;2023-02-25T17:51:50;15.00;;;7.45;;
22007;SDS011;11168;56.976;24.168;2023-02-25T17:54:23;14.48;;;7.43;;
22007;SDS011;11168;56.976;24.168;2023-02-25T17:57:14;15.13;;;6.03;;
22007;SDS011;11168;56.976;24.168;2023-02-25T17:59:42;10.80;;;6.07;;
22007;SDS011;11168;56.976;24.168;2023-02-25T18:02:30;9.20;;;4.88;;
22007;SDS011;11168;56.976;24.168;2023-02-25T18:07:42;12.20;;;5.82;;
22007;SDS011;11168;56.976;24.168;2023-02-25T18:12:48;16.75;;;7.07;;
22007;SDS011;11168;56.976;24.168;2023-02-25T18:15:20;19.08;;;8.63;;
22007;SDS011;11168;56.976;24.168;2023-02-25T18:17:50;14.13;;;6.78;;
22007;SDS011;11168;56.976;24.168;2023-02-25T18:20:39;11.77;;;6.68;;
22007;SDS011;11168;56.976;24.168;2023-02-25T18:23:15;15.75;;;6.25;;
22007;SDS011;11168;56.976;24.168;2023-02-25T18:26:08;12.18;;;5.25;;
22007;SDS011;11168;56.976;24.168;2023-02-25T18:28:38;12.30;;;5.97;;
22007;SDS011;11168;56.976;24.168;2023-02-25T18:31:05;15.80;;;6.80;;
22007;SDS011;11168;56.976;24.168;2023-02-25T18:33:33;12.07;;;6.28;;
22007;SDS011;11168;56.976;24.168;2023-02-25T18:36:00;17.83;;;6.57;;
22007;SDS011;11168;56.976;24.168;2023-02-25T18:38:31;15.55;;;7.25;;
22007;SDS011;11168;56.976;24.168;2023-02-25T18:40:58;11.27;;;5.82;;
22007;SDS011;11168;56.976;24.168;2023-02-25T18:43:25;11.18;;;6.13;;
22007;SDS011;11168;56.976;24.168;2023-02-25T18:48:23;14.15;;;6.40;;
22007;SDS011;11168;56.976;24.168;2023-02-25T18:50:50;12.38;;;6.43;;
22007;SDS011;11168;56.976;24.168;2023-02-25T18:53:20;15.13;;;6.53;;
22007;SDS011;11168;56.976;24.168;2023-02-25T18:55:49;13.15;;;4.10;;
22007;SDS011;11168;56.976;24.168;2023-02-25T18:58:17;11.80;;;4.30;;
22007;SDS011;11168;56.976;24.168;2023-02-25T19:00:51;10.75;;;5.28;;
22007;SDS011;11168;56.976;24.168;2023-02-25T19:03:24;9.63;;;4.50;;
22007;SDS011;11168;56.976;24.168;2023-02-25T19:05:54;11.45;;;6.47;;
22007;SDS011;11168;56.976;24.168;2023-02-25T19:08:22;10.27;;;5.15;;
22007;SDS011;11168;56.976;24.168;2023-02-25T19:10:51;10.70;;;5.85;;
22007;SDS011;11168;56.976;24.168;2023-02-25T19:13:21;11.57;;;4.77;;
22007;SDS011;11168;56.976;24.168;2023-02-25T19:15:53;10.80;;;4.80;;
22007;SDS011;11168;56.976;24.168;2023-02-25T19:18:20;5.20;;;3.70;;
22007;SDS011;11168;56.976;24.168;2023-02-25T19:20:48;9.00;;;4.72;;
22007;SDS011;11168;56.976;24.168;2023-02-25T19:23:16;7.78;;;4.60;;
22007;SDS011;11168;56.976;24.168;2023-02-25T19:25:45;9.35;;;4.88;;
22007;SDS011;11168;56.976;24.168;2023-02-25T19:28:21;10.00;;;4.50;;
22007;SDS011;11168;56.976;24.168;2023-02-25T19:30:48;11.32;;;5.22;;
22007;SDS011;11168;56.976;24.168;2023-02-25T19:33:15;5.80;;;3.55;;
22007;SDS011;11168;56.976;24.168;2023-02-25T19:35:42;7.80;;;4.25;;
22007;SDS011;11168;56.976;24.168;2023-02-25T19:38:11;7.68;;;4.05;;
22007;SDS011;11168;56.976;24.168;2023-02-25T19:40:41;6.05;;;3.55;;
22007;SDS011;11168;56.976;24.168;2023-02-25T19:43:09;6.63;;;3.53;;
22007;SDS011;11168;56.976;24.168;2023-02-25T19:45:37;7.18;;;3.95;;
22007;SDS011;11168;56.976;24.168;2023-02-25T19:48:05;9.60;;;4.15;;
22007;SDS011;11168;56.976;24.168;2023-02-25T19:50:34;6.97;;;3.83;;
22007;SDS011;11168;56.976;24.168;2023-02-25T19:53:03;6.50;;;3.60;;
22007;SDS011;11168;56.976;24.168;2023-02-25T19:55:32;6.47;;;3.65;;
22007;SDS011;11168;56.976;24.168;2023-02-25T19:57:59;8.50;;;4.28;;
22007;SDS011;11168;56.976;24.168;2023-02-25T20:00:27;11.70;;;4.65;;
22007;SDS011;11168;56.976;24.168;2023-02-25T20:02:54;9.55;;;4.72;;
22007;SDS011;11168;56.976;24.168;2023-02-25T20:05:21;9.55;;;5.00;;
22007;SDS011;11168;56.976;24.168;2023-02-25T20:07:50;6.72;;;3.65;;
22007;SDS011;11168;56.976;24.168;2023-02-25T20:10:18;6.97;;;3.75;;
22007;SDS011;11168;56.976;24.168;2023-02-25T20:12:47;6.82;;;3.22;;
22007;SDS011;11168;56.976;24.168;2023-02-25T20:15:16;9.52;;;4.10;;
22007;SDS011;11168;56.976;24.168;2023-02-25T20:17:44;10.02;;;3.90;;
22007;SDS011;11168;56.976;24.168;2023-02-25T20:20:14;7.57;;;3.40;;
22007;SDS011;11168;56.976;24.168;2023-02-25T20:22:42;9.55;;;5.00;;
22007;SDS011;11168;56.976;24.168;2023-02-25T20:25:11;9.07;;;4.57;;
22007;SDS011;11168;56.976;24.168;2023-02-25T20:27:40;6.43;;;3.65;;
22007;SDS011;11168;56.976;24.168;2023-02-25T20:30:10;10.90;;;4.90;;
22007;SDS011;11168;56.976;24.168;2023-02-25T20:32:44;9.63;;;4.82;;
22007;SDS011;11168;56.976;24.168;2023-02-25T20:35:13;10.23;;;4.78;;
22007;SDS011;11168;56.976;24.168;2023-02-25T20:40:15;11.15;;;4.70;;
22007;SDS011;11168;56.976;24.168;2023-02-25T20:42:43;12.82;;;6.57;;
22007;SDS011;11168;56.976;24.168;2023-02-25T20:45:12;9.65;;;4.60;;
22007;SDS011;11168;56.976;24.168;2023-02-25T20:47:41;11.02;;;4.95;;
22007;SDS011;11168;56.976;24.168;2023-02-25T20:50:08;11.73;;;4.63;;
22007;SDS011;11168;56.976;24.168;2023-02-25T20:52:40;7.75;;;4.75;;
22007;SDS011;11168;56.976;24.168;2023-02-25T20:55:07;10.05;;;4.90;;
22007;SDS011;11168;56.976;24.168;2023-02-25T20:57:35;10.23;;;5.45;;
22007;SDS011;11168;56.976;24.168;2023-02-25T21:00:03;13.23;;;5.53;;
22007;SDS011;11168;56.976;24.168;2023-02-25T21:02:35;9.60;;;5.00;;
22007;SDS011;11168;56.976;24.168;2023-02-25T21:05:03;8.95;;;5.00;;
22007;SDS011;11168;56.976;24.168;2023-02-25T21:07:30;10.18;;;5.15;;
22007;SDS011;11168;56.976;24.168;2023-02-25T21:09:57;8.38;;;4.93;;
22007;SDS011;11168;56.976;24.168;2023-02-25T21:12:24;11.02;;;5.70;;
22007;SDS011;11168;56.976;24.168;2023-02-25T21:14:51;11.23;;;5.88;;
22007;SDS011;11168;56.976;24.168;2023-02-25T21:17:18;12.18;;;5.60;;
22007;SDS011;11168;56.976;24.168;2023-02-25T21:19:45;11.10;;;5.03;;
22007;SDS011;11168;56.976;24.168;2023-02-25T21:22:12;10.05;;;5.75;;
22007;SDS011;11168;56.976;24.168;2023-02-25T21:24:40;8.57;;;4.30;;
22007;SDS011;11168;56.976;24.168;2023-02-25T21:27:07;14.40;;;5.00;;
22007;SDS011;11168;56.976;24.168;2023-02-25T21:29:33;7.65;;;4.30;;
22007;SDS011;11168;56.976;24.168;2023-02-25T21:32:01;6.85;;;4.15;;
22007;SDS011;11168;56.976;24.168;2023-02-25T21:34:28;8.32;;;4.65;;
22007;SDS011;11168;56.976;24.168;2023-02-25T21:36:55;7.93;;;3.80;;
22007;SDS011;11168;56.976;24.168;2023-02-25T21:39:27;10.02;;;4.82;;
22007;SDS011;11168;56.976;24.168;2023-02-25T21:41:54;11.40;;;5.00;;
22007;SDS011;11168;56.976;24.168;2023-02-25T21:44:21;6.72;;;3.50;;
22007;SDS011;11168;56.976;24.168;2023-02-25T21:46:49;10.02;;;4.82;;
22007;SDS011;11168;56.976;24.168;2023-02-25T21:49:16;5.03;;;3.35;;
22007;SDS011;11168;56.976;24.168;2023-02-25T21:51:45;8.60;;;4.75;;
22007;SDS011;11168;56.976;24.168;2023-02-25T21:54:14;7.85;;;3.97;;
22007;SDS011;11168;56.976;24.168;2023-02-25T21:56:42;9.35;;;3.83;;
22007;SDS011;11168;56.976;24.168;2023-02-25T21:59:09;7.60;;;3.70;;
22007;SDS011;11168;56.976;24.168;2023-02-25T22:01:37;7.47;;;3.75;;
22007;SDS011;11168;56.976;24.168;2023-02-25T22:04:06;7.03;;;3.95;;
22007;SDS011;11168;56.976;24.168;2023-02-25T22:06:34;5.85;;;3.05;;
22007;SDS011;11168;56.976;24.168;2023-02-25T22:09:02;4.57;;;2.47;;
22007;SDS011;11168;56.976;24.168;2023-02-25T22:11:31;11.35;;;4.55;;
22007;SDS011;11168;56.976;24.168;2023-02-25T22:14:00;8.25;;;3.88;;
22007;SDS011;11168;56.976;24.168;2023-02-25T22:16:29;7.57;;;4.20;;
22007;SDS011;11168;56.976;24.168;2023-02-25T22:18:56;7.07;;;3.60;;
22007;SDS011;11168;56.976;24.168;2023-02-25T22:21:26;8.15;;;3.90;;
22007;SDS011;11168;56.976;24.168;2023-02-25T22:26:24;7.43;;;3.80;;
22007;SDS011;11168;56.976;24.168;2023-02-25T22:28:55;6.47;;;3.65;;
22007;SDS011;11168;56.976;24.168;2023-02-25T22:31:24;8.07;;;3.88;;
22007;SDS011;11168;56.976;24.168;2023-02-25T22:33:54;6.15;;;3.55;;
22007;SDS011;11168;56.976;24.168;2023-02-25T22:36:22;6.63;;;3.72;;
22007;SDS011;11168;56.976;24.168;2023-02-25T22:38:50;6.40;;;3.55;;
22007;SDS011;11168;56.976;24.168;2023-02-25T22:41:18;6.55;;;3.65;;
22007;SDS011;11168;56.976;24.168;2023-02-25T22:43:48;5.57;;;2.92;;
22007;SDS011;11168;56.976;24.168;2023-02-25T22:46:17;7.30;;;2.95;;
22007;SDS011;11168;56.976;24.168;2023-02-25T22:48:54;6.75;;;2.92;;
22007;SDS011;11168;56.976;24.168;2023-02-25T22:51:22;4.75;;;3.10;;
22007;SDS011;11168;56.976;24.168;2023-02-25T22:53:51;5.35;;;2.67;;
22007;SDS011;11168;56.976;24.168;2023-02-25T22:56:19;6.40;;;3.15;;
22007;SDS011;11168;56.976;24.168;2023-02-25T22:58:47;7.70;;;4.03;;
22007;SDS011;11168;56.976;24.168;2023-02-25T23:01:17;5.43;;;3.28;;
22007;SDS011;11168;56.976;24.168;2023-02-25T23:03:47;5.88;;;3.03;;
22007;SDS011;11168;56.976;24.168;2023-02-25T23:06:16;4.65;;;2.53;;
22007;SDS011;11168;56.976;24.168;2023-02-25T23:08:46;5.57;;;2.90;;
22007;SDS011;11168;56.976;24.168;2023-02-25T23:11:17;3.00;;;2.13;;
22007;SDS011;11168;56.976;24.168;2023-02-25T23:13:46;4.75;;;2.72;;
22007;SDS011;11168;56.976;24.168;2023-02-25T23:16:16;5.93;;;2.55;;
22007;SDS011;11168;56.976;24.168;2023-02-25T23:18:44;5.43;;;2.63;;
22007;SDS011;11168;56.976;24.168;2023-02-25T23:21:13;4.70;;;2.72;;
22007;SDS011;11168;56.976;24.168;2023-02-25T23:23:48;4.43;;;2.42;;
22007;SDS011;11168;56.976;24.168;2023-02-25T23:26:17;4.18;;;2.17;;
22007;SDS011;11168;56.976;24.168;2023-02-25T23:28:46;3.97;;;2.67;;
22007;SDS011;11168;56.976;24.168;2023-02-25T23:31:22;4.90;;;2.72;;
22007;SDS011;11168;56.976;24.168;2023-02-25T23:33:57;5.53;;;3.22;;
22007;SDS011;11168;56.976;24.168;2023-02-25T23:36:34;5.25;;;2.75;;
22007;SDS011;11168;56.976;24.168;2023-02-25T23:39:03;4.75;;;2.97;;
22007;SDS011;11168;56.976;24.168;2023-02-25T23:41:32;4.10;;;2.38;;
22007;SDS011;11168;56.976;24.168;2023-02-25T23:44:00;6.32;;;2.00;;
22007;SDS011;11168;56.976;24.168;2023-02-25T23:46:28;5.28;;;3.17;;
22007;SDS011;11168;56.976;24.168;2023-02-25T23:48:58;3.28;;;1.95;;
22007;SDS011;11168;56.976;24.168;2023-02-25T23:53:55;5.63;;;2.72;;
22007;SDS011;11168;56.976;24.168;2023-02-25T23:56:28;4.38;;;2.88;;
22007;SDS011;11168;56.976;24.168;2023-02-25T23:58:56;4.20;;;2.03;;
